Tiempo atmosférico en la estación meteorológica de Cedrillas, Teruel (1380 m.)



Fecha
DESCASC
Temp. máxima en grados centígrados (hora)
DESCASC
Temp. mínima en grados centígrados (hora)
DESCASC
Temp. media en grados centígrados
DESCASC
Racha de viento máxima en m/sg (hora)
DESCASC
Velocidad máxima media en intervalos de 10 minutos(hora)
DESCASC
Precipitaciones diarias en mm
DESCASC
Precipitaciones de 00:00 a 06:00 en mm
DESCASC
Precipitaciones de 06:00 a 12:00 en mm
DESCASC
Precipitaciones de 12:00 a 18:00 en mm
DESCASC
Precipitaciones de 18:00 a 24:00 en mm
DESCASC
18-08-2019 31.6 (16:40) 15 (06:20) 23.3 13.61 (13:30) 8.61 (16:50) 0 0 0 0 0
17-08-2019 31.6 (16:50) 14.1 (07:00) 22.9 11.67 (17:20) 7.5 (17:20) 0 0 0 0 0
16-08-2019 28.6 (15:40) 13.8 (04:10) 21.2 10.28 (16:30) 7.22 (20:10) 0 0 0 0 0
15-08-2019 29.7 (17:00) 11.3 (00:00) 20.5 10 (15:30) 6.11 (16:40) 0 0 0 0 0
14-08-2019 27 (18:00) 8.2 (00:00) 17.6 8.61 (13:40) 6.11 (12:50) 0 0 0 0 0
13-08-2019 20.8 (14:30) 10.4 (00:00) 15.6 8.61 (12:30) 5.83 (17:50) 1.4 0 0 1.4 0
12-08-2019 24.2 (17:40) 10.8 (00:00) 17.5 9.72 (18:40) 6.39 (20:30) 0 0 0 0 0
11-08-2019 28.3 (17:00) 16.2 (00:00) 22.3 14.44 (11:40) 8.61 (11:40) 0 0 0 0 0
10-08-2019 29.8 (15:30) 14.1 (00:00) 21.9 13.33 (15:00) 8.61 (15:20) 0 0 0 0 0
09-08-2019 31.7 (18:00) 14 (00:00) 22.9 10.28 (14:20) 6.94 (20:20) 0 0 0 0 0
08-08-2019 31 (18:10) 14.3 (00:00) 22.7 11.67 (19:00) 7.5 (19:00) 0 0 0 0 0
07-08-2019 26.7 (18:40) 14.5 (00:00) 20.6 9.44 (11:20) 6.11 (11:10) 0 0 0 0 0
06-08-2019 31.8 (18:10) 15.5 (00:00) 23.6 12.22 (18:30) 7.78 (20:30) 0 0 0 0 0
05-08-2019 30.3 (16:30) 14.9 (00:00) 22.6 10.56 (15:40) 6.94 (19:20) 0 0 0 0 0
04-08-2019 30.4 (15:20) 14.1 (00:00) 22.3 14.44 (14:20) 8.33 (13:40) 0 0 0 0 0
03-08-2019 29.1 (16:00) 11.9 (00:00) 20.5 11.39 (15:40) 7.5 (18:40) 0 0 0 0 0
02-08-2019 29.1 (15:20) 12.1 (00:00) 20.6 10.56 (18:50) 6.94 (18:50) 0 0 0 0 0
01-08-2019 28.5 (16:00) 13.1 (00:00) 20.8 10.56 (16:10) 6.94 (05:40) 0 0 0 0 0
31-07-2019 22.2 (15:10) 11 (00:00) 16.6 12.5 (14:10) 8.33 (13:40) 0 0 0 0 0
30-07-2019 27.1 (16:30) 11 (00:00) 19.1 13.33 (15:20) 7.5 (15:10) 0 0 0 0 0
29-07-2019 28.7 (18:20) 10.2 (00:00) 19.5 10.83 (15:50) 6.39 (15:00) 0 0 0 0 0
28-07-2019 24.9 (19:10) 8.4 (00:00) 16.6 8.89 (10:00) 5.83 (10:30) 0 0 0 0 0
27-07-2019 23.1 (17:10) 10.7 (00:00) 16.9 12.5 (18:10) 8.06 (17:20) 0 0 0 0 0
26-07-2019 25.3 (14:20) 13.2 (00:00) 19.2 21.67 (15:20) 13.06 (15:20) 7.4 0 0 7.4 0
25-07-2019 30.2 (15:20) 17.5 (00:00) 23.9 -- (--) -- (--) 0 0 0 0 0
24-07-2019 30.8 (15:00) 14.2 (00:00) 22.5 11.94 (19:10) 8.33 (18:00) 0 0 0 0 0
23-07-2019 30.3 (16:40) 18.3 (00:00) 24.3 11.94 (18:00) 8.33 (19:30) 0 0 0 0 0
22-07-2019 28.9 (16:40) 16 (00:00) 22.4 12.5 (15:30) 8.89 (18:30) 0 0 0 0 0
21-07-2019 27.8 (15:30) 17.6 (00:00) 22.7 12.22 (18:30) 7.78 (16:00) 0 0 0 0 0

Gráficas

Temp. máximas Temp. mínimas Temp. medias Precipitaciones Rachas de viento máximas Velocidades máximas media en intervalos de 10 minutos

Datos horarios

Fecha y hora oficial Temperatura (ºC) Velocidad del viento (km/h) Dirección del viento Racha (km/h) Dirección de racha Precipitación (mm) Presión (hPa) Tendencia (hPa) Humedad (%)
2019-08-19 23:00:00 18.6 12 Sudeste 26 Sudeste 0 -- -- 80
2019-08-19 22:00:00 19.2 22 Sudeste 32 Este 0 -- -- 81
2019-08-19 21:00:00 19.9 17 Este 37 Sudeste 0 -- -- 79
2019-08-19 20:00:00 21.1 26 Sudeste 39 Sur 0 -- -- 74
2019-08-19 19:00:00 23.2 26 Sudeste 41 Sudeste 0 -- -- 64
2019-08-19 18:00:00 24.6 26 Sudeste 46 Sudeste 0 -- -- 57
2019-08-19 17:00:00 26.3 26 Sudeste 40 Sudeste 0 -- -- 47
2019-08-19 16:00:00 26.2 25 Sudeste 40 Sudeste 0 -- -- 46
2019-08-19 15:00:00 26.9 18 Sur 37 Sur 0 -- -- 45
2019-08-19 14:00:00 26.2 19 Sur 38 Sudeste 0 -- -- 43
2019-08-19 13:00:00 24.9 21 Sur 31 Sudeste 0 -- -- 46
2019-08-19 12:00:00 24 18 Sur 27 Sur 0 -- -- 50
2019-08-19 11:00:00 22.1 18 Sur 28 Sur 0 -- -- 59
2019-08-19 10:00:00 20.7 18 Sur 26 Sur 0 -- -- 62
2019-08-19 09:00:00 19.1 15 Sur 22 Sur 0 -- -- 60
2019-08-19 08:00:00 13.5 0 Calma 5 Oeste 0 -- -- 70
2019-08-19 07:00:00 13.6 4 Sudeste 7 Sudeste 0 -- -- 67
2019-08-19 06:00:00 14.5 3 Este 10 Este 0 -- -- 64
2019-08-19 05:00:00 15.3 8 Sudeste 13 Este 0 -- -- 62
2019-08-19 04:00:00 15.7 6 Sudeste 13 Este 0 -- -- 60
2019-08-19 03:00:00 16.2 10 Este 13 Este 0 -- -- 59
2019-08-19 02:00:00 18.6 4 Este 6 Sudeste 0 -- -- 52
2019-08-19 01:00:00 19.4 4 Noroeste 13 Sur 0 -- -- 54
2019-08-19 00:00:00 20.1 8 Sur 13 Sur 0 -- -- 51
2019-08-18 23:00:00 21.3 9 Sur 21 Sur 0 -- -- 51
2019-08-18 22:00:00 22.4 13 Sur 30 Sudeste 0 -- -- 52
2019-08-18 21:00:00 24.5 21 Sudeste 38 Sudoeste 0 -- -- 49
2019-08-18 20:00:00 29.4 22 Sudoeste 43 Sudoeste 0 -- -- 17
2019-08-18 19:00:00 30.6 24 Sudoeste 46 Sudoeste 0 -- -- 17
2019-08-18 18:00:00 31 28 Sudoeste 44 Oeste 0 -- -- 17
2019-08-18 17:00:00 31.2 24 Sudoeste 49 Oeste 0 -- -- 16
2019-08-18 16:00:00 31.3 24 Sudoeste 44 Sudoeste 0 -- -- 17
2019-08-18 15:00:00 31 27 Sudoeste 44 Sudoeste 0 -- -- 16
2019-08-18 14:00:00 30.2 23 Sudoeste 49 Sudoeste 0 -- -- 17
2019-08-18 13:00:00 29.4 28 Sudoeste 43 Sudoeste 0 -- -- 21
2019-08-18 12:00:00 28.6 21 Sudoeste 39 Sudoeste 0 -- -- 24
2019-08-18 11:00:00 27.3 15 Sudoeste 24 Sudoeste 0 -- -- 24
2019-08-18 10:00:00 24.3 8 Sur 11 Sur 0 -- -- 41
2019-08-18 09:00:00 17.8 6 Sudoeste 11 Sur 0 -- -- 65
2019-08-18 08:00:00 16.5 5 Este 9 Este 0 -- -- 62
2019-08-18 07:00:00 15.8 3 Este 6 Este 0 -- -- 69
2019-08-18 06:00:00 16 0 Calma 5 Sudoeste 0 -- -- 74
2019-08-18 05:00:00 17.5 2 Noroeste 12 Sur 0 -- -- 68
2019-08-18 04:00:00 19.2 9 Sur 16 Sur 0 -- -- 63
2019-08-18 03:00:00 19 9 Sur 17 Sur 0 -- -- 65
2019-08-18 02:00:00 20.2 14 Sur 19 Sur 0 -- -- 61
2019-08-18 01:00:00 20.3 14 Sur 20 Sudeste 0 -- -- 65
2019-08-18 00:00:00 19.5 13 Sur 27 Sur 0 -- -- 77
2019-08-17 23:00:00 19.3 20 Sur 27 Sur 0 -- -- 87
2019-08-17 22:00:00 21 18 Sur 26 Sur 0 -- -- 74
2019-08-17 21:00:00 22.9 17 Sur 30 Sur 0 -- -- 65
2019-08-17 20:00:00 24.7 20 Sudeste 30 Sur 0 -- -- 59
2019-08-17 19:00:00 26.8 21 Sudeste 33 Sur 0 -- -- 49
2019-08-17 18:00:00 28.5 22 Sur 42 Sudoeste 0 -- -- 43
2019-08-17 17:00:00 31.2 25 Sudoeste 40 Sudoeste 0 -- -- 20
2019-08-17 16:00:00 31.2 22 Sudoeste 37 Sudoeste 0 -- -- 21
2019-08-17 15:00:00 31 17 Oeste 38 Sudoeste 0 -- -- 22
2019-08-17 14:00:00 29.2 16 Sudoeste 40 Sudoeste 0 -- -- 27
2019-08-17 13:00:00 28.8 21 Oeste 40 Sudoeste 0 -- -- 28
2019-08-17 12:00:00 27.8 21 Sudoeste 33 Sudoeste 0 -- -- 29
2019-08-17 11:00:00 26.8 12 Sudoeste 22 Sudoeste 0 -- -- 32
2019-08-17 10:00:00 24.3 11 Sur 17 Sur 0 -- -- 45
2019-08-17 09:00:00 17.9 2 Sudoeste 12 Este 0 -- -- 72
2019-08-17 08:00:00 14.3 5 Sudoeste 16 Este 0 -- -- 83
2019-08-17 07:00:00 14.1 8 Este 11 Este 0 -- -- 82
2019-08-17 06:00:00 15.4 6 Este 12 Este 0 -- -- 79
2019-08-17 05:00:00 15.8 3 Este 9 Sur 0 -- -- 81
2019-08-17 04:00:00 16.7 4 Sudeste 10 Sudeste 0 -- -- 81
2019-08-17 03:00:00 17 3 Sur 9 Sur 0 -- -- 84
2019-08-17 02:00:00 16.5 6 Sudeste 12 Sudoeste 0 -- -- 96
2019-08-17 01:00:00 17.5 10 Sur 17 Sur 0 -- -- 96
2019-08-17 00:00:00 18.1 13 Sur 22 Sur 0 -- -- 93
2019-08-16 23:00:00 18.8 13 Sudeste 21 Sudeste 0 -- -- 90
2019-08-16 22:00:00 19.9 10 Sudeste 25 Sudeste 0 -- -- 85
2019-08-16 21:00:00 21.4 11 Este 34 Sur 0 -- -- 76
2019-08-16 20:00:00 23.8 26 Sur 35 Sur 0 -- -- 64
2019-08-16 19:00:00 26.3 23 Sur 33 Sur 0 -- -- 54
2019-08-16 18:00:00 27.6 18 Sur 31 Sur 0 -- -- 46
2019-08-16 17:00:00 27.8 17 Sur 37 Sudeste 0 -- -- 42
2019-08-16 16:00:00 28.1 19 Sudeste 33 Sur 0 -- -- 38
2019-08-16 15:00:00 27.5 15 Sur 33 Sur 0 -- -- 37
2019-08-16 14:00:00 26.7 19 Sudeste 28 Sudeste 0 -- -- 41
2019-08-16 13:00:00 25.1 18 Sudeste 27 Sur 0 -- -- 46
2019-08-16 12:00:00 23 17 Sur 25 Sur 0 -- -- 55
2019-08-16 11:00:00 21.2 17 Sur 29 Sur 0 -- -- 52
2019-08-16 10:00:00 19.5 15 Sur 22 Sur 0 -- -- 70
2019-08-16 09:00:00 17.2 8 Sudoeste 15 Sur 0 -- -- 84
2019-08-16 08:00:00 15.8 4 Sur 14 Sur 0 -- -- 93
2019-08-16 07:00:00 15.8 10 Sudeste 17 Sur 0 -- -- 92
2019-08-16 06:00:00 15.6 6 Sur 15 Sur 0 -- -- 95
2019-08-16 05:00:00 14.2 3 Sudeste 4 Sudeste 0 -- -- 77
2019-08-16 04:00:00 14.1 2 Oeste 9 Este 0 -- -- 76
2019-08-16 03:00:00 14.3 3 Nordeste 4 Norte 0 -- -- 73
2019-08-16 02:00:00 15.2 3 Norte 8 Norte 0 -- -- 67
2019-08-16 01:00:00 15.9 3 Nordeste 9 Sudeste 0 -- -- 86
2019-08-16 00:00:00 16.8 6 Sudeste 9 Sudeste 0 -- -- 84
2019-08-15 23:00:00 17.8 9 Sur 13 Sur 0 -- -- 88
2019-08-15 22:00:00 18.9 5 Sudeste 19 Sur 0 -- -- 75
2019-08-15 21:00:00 20.5 7 Sudeste 20 Sudeste 0 -- -- 66
2019-08-15 20:00:00 21.9 14 Sudeste 31 Este 0 -- -- 64
2019-08-15 19:00:00 24.2 17 Sur 26 Sur 0 -- -- 59
2019-08-15 18:00:00 25.3 6 Nordeste 26 Sur 0 -- -- 50
2019-08-15 17:00:00 29.7 15 Oeste 36 Oeste 0 -- -- 24
2019-08-15 16:00:00 28.8 18 Oeste 36 Oeste 0 -- -- 26
2019-08-15 15:00:00 28.3 21 Noroeste 32 Sudoeste 0 -- -- 25
2019-08-15 14:00:00 27.1 14 Oeste 28 Sudoeste 0 -- -- 26
2019-08-15 13:00:00 26.2 11 Oeste 25 Sudoeste 0 -- -- 28
2019-08-15 12:00:00 24.9 12 Sudeste 23 Sur 0 -- -- 38
2019-08-15 11:00:00 23.1 12 Sur 20 Sur 0 -- -- 47
2019-08-15 10:00:00 21 10 Sur 20 Sur 0 -- -- 48
2019-08-15 09:00:00 16.3 0 Calma 3 Nordeste 0 -- -- 75
2019-08-15 08:00:00 11.9 2 Sudoeste 5 Nordeste 0 -- -- 89
2019-08-15 07:00:00 11.4 0 Calma 3 Nordeste 0 -- -- 88
2019-08-15 06:00:00 11.5 0 Calma 4 Sur 0 -- -- 89
2019-08-15 05:00:00 12.1 4 Este 5 Nordeste 0 -- -- 87
2019-08-15 04:00:00 12.6 0 Calma 10 Sudeste 0 -- -- 87
2019-08-15 03:00:00 13.7 8 Sudeste 10 Este 0 -- -- 89
2019-08-15 02:00:00 15.1 9 Este 12 Este 0 -- -- 91
2019-08-15 01:00:00 15.8 7 Nordeste 12 Nordeste 0 -- -- 87
2019-08-15 00:00:00 17.4 8 Sur 20 Sur 0 -- -- 90
2019-08-14 23:00:00 18.3 15 Sur 23 Sur 0 -- -- 86
2019-08-14 22:00:00 20.1 17 Sur 24 Sur 0 -- -- 75
2019-08-14 21:00:00 23.3 10 Sur 19 Noroeste 0 -- -- 56
2019-08-14 20:00:00 26.3 11 Noroeste 22 Noroeste 0 -- -- 22
2019-08-14 19:00:00 26.8 15 Noroeste 27 Noroeste 0 -- -- 21
2019-08-14 18:00:00 27 13 Noroeste 28 Noroeste 0 -- -- 22
2019-08-14 17:00:00 26.8 14 Noroeste 30 Noroeste 0 -- -- 22
2019-08-14 16:00:00 25.9 12 Noroeste 28 Norte 0 -- -- 23
2019-08-14 15:00:00 25.3 14 Oeste 29 Noroeste 0 -- -- 25
2019-08-14 14:00:00 24 17 Noroeste 31 Noroeste 0 -- -- 26
2019-08-14 13:00:00 22.8 18 Oeste 31 Oeste 0 -- -- 28
2019-08-14 12:00:00 22 13 Noroeste 30 Sudoeste 0 -- -- 31
2019-08-14 11:00:00 20 5 Sur 14 Sudoeste 0 -- -- 55
2019-08-14 10:00:00 17.2 7 Sur 12 Sur 0 -- -- 76
2019-08-14 09:00:00 11.2 3 Oeste 6 Oeste 0 -- -- 96
2019-08-14 08:00:00 9 2 Nordeste 8 Este 0 -- -- 98
2019-08-14 07:00:00 8.3 5 Este 7 Este 0 -- -- 96
2019-08-14 06:00:00 8.6 3 Este 5 Nordeste 0 -- -- 94
2019-08-14 05:00:00 9.3 3 Este 6 Nordeste 0 -- -- 96
2019-08-14 04:00:00 9.7 4 Nordeste 8 Este 0 -- -- 91
2019-08-14 03:00:00 10.8 4 Sudeste 12 Este 0 -- -- 90
2019-08-14 02:00:00 12 5 Sudeste 10 Sudeste 0 -- -- 91
2019-08-14 01:00:00 11.7 6 Sudeste 8 Este 0 -- -- 96
2019-08-14 00:00:00 12 3 Sudeste 10 Este 0 -- -- 88
2019-08-13 23:00:00 13.6 5 Sudeste 10 Sur 0 -- -- 83
2019-08-13 22:00:00 15.4 10 Sur 15 Sur 0 -- -- 84
2019-08-13 21:00:00 17.9 7 Sur 19 Norte 0 -- -- 71
2019-08-13 20:00:00 20.2 15 Nordeste 23 Norte 0 -- -- 42
2019-08-13 19:00:00 20 7 Este 17 Sudeste 0 -- -- 52
2019-08-13 18:00:00 19.6 15 Sudeste 27 Sur 0 -- -- 63
2019-08-13 17:00:00 20.7 12 Oeste 19 Noroeste 0 -- -- 46
2019-08-13 16:00:00 19.2 4 Oeste 28 Sudoeste 1.4 -- -- 66
2019-08-13 15:00:00 19.5 14 Sur 29 Sur 0 -- -- 56
2019-08-13 14:00:00 19.9 11 Sur 26 Sudeste 0 -- -- 52
2019-08-13 13:00:00 18.4 15 Sur 31 Sudeste 0 -- -- 59
2019-08-13 12:00:00 17.7 15 Sur 28 Sur 0 -- -- 61
2019-08-13 11:00:00 16 11 Sudeste 19 Sudeste 0 -- -- 60
2019-08-13 10:00:00 13.8 4 Oeste 9 Oeste 0 -- -- 59
2019-08-13 09:00:00 11.8 5 Norte 10 Norte 0 -- -- 63
2019-08-13 08:00:00 10.8 6 Noroeste 13 Norte 0 -- -- 67
2019-08-13 07:00:00 10.6 8 Norte 14 Noroeste 0 -- -- 68
2019-08-13 06:00:00 10.6 10 Noroeste 15 Noroeste 0 -- -- 68
2019-08-13 05:00:00 10.5 9 Norte 17 Noroeste 0 -- -- 69
2019-08-13 04:00:00 10.5 9 Norte 17 Norte 0 -- -- 69
2019-08-13 03:00:00 10.8 11 Norte 16 Norte 0 -- -- 69
2019-08-13 02:00:00 11.3 9 Norte 18 Norte 0 -- -- 66
2019-08-13 01:00:00 11.8 13 Norte 27 Norte 0 -- -- 64
2019-08-13 00:00:00 12.7 15 Norte 29 Norte 0 -- -- 62
2019-08-12 23:00:00 13.6 17 Norte 28 Norte 0 -- -- 57
2019-08-12 22:00:00 14.8 18 Norte 34 Norte 0 -- -- 50
2019-08-12 21:00:00 16.3 22 Norte 35 Norte 0 -- -- 45
2019-08-12 20:00:00 20.2 19 Norte 29 Nordeste 0 -- -- 37
2019-08-12 19:00:00 20.8 19 Norte 35 Nordeste 0 -- -- 36
2019-08-12 18:00:00 24.1 15 Oeste 29 Oeste 0 -- -- 22
2019-08-12 17:00:00 23.8 9 Noroeste 24 Sudoeste 0 -- -- 24
2019-08-12 16:00:00 23 11 Oeste 33 Noroeste 0 -- -- 27
2019-08-12 15:00:00 21.7 9 Oeste 23 Noroeste 0 -- -- 33
2019-08-12 14:00:00 20.7 8 Norte 29 Norte 0 -- -- 37
2019-08-12 13:00:00 19.2 12 Norte 27 Norte 0 -- -- 41
2019-08-12 12:00:00 17.7 16 Norte 26 Norte 0 -- -- 47
2019-08-12 11:00:00 16.2 15 Norte 27 Norte 0 -- -- 56
2019-08-12 10:00:00 14.5 17 Norte 27 Norte 0 -- -- 66
2019-08-12 09:00:00 12.5 14 Norte 21 Nordeste 0 -- -- 79
2019-08-12 08:00:00 10.9 8 Norte 15 Norte 0 -- -- 85
2019-08-12 07:00:00 11 5 Nordeste 12 Norte 0 -- -- 84
2019-08-12 06:00:00 11 7 Nordeste 13 Nordeste 0 -- -- 82
2019-08-12 05:00:00 11.4 5 Nordeste 10 Nordeste 0 -- -- 80
2019-08-12 04:00:00 12.5 6 Norte 15 Norte 0 -- -- 77
2019-08-12 03:00:00 13.2 6 Nordeste 13 Noroeste 0 -- -- 75
2019-08-12 02:00:00 14.5 4 Norte 9 Nordeste 0 -- -- 68
2019-08-12 01:00:00 15.9 4 Noroeste 13 Norte 0 -- -- 63
2019-08-12 00:00:00 18 8 Norte 11 Norte 0 -- -- 59
2019-08-11 23:00:00 19.8 0 Calma 11 Norte 0 -- -- 54
2019-08-11 22:00:00 21.9 8 Noroeste 24 Sudoeste 0 -- -- 42
2019-08-11 21:00:00 23.7 15 Sudoeste 32 Sudoeste 0 -- -- 23
2019-08-11 20:00:00 25.1 21 Sudoeste 34 Sudoeste 0 -- -- 19
2019-08-11 19:00:00 25.8 21 Sudoeste 35 Sudoeste 0 -- -- 19
2019-08-11 18:00:00 27.8 20 Sudoeste 40 Oeste 0 -- -- 19
2019-08-11 17:00:00 28.3 24 Sudoeste 41 Oeste 0 -- -- 20
2019-08-11 16:00:00 27.1 21 Sudoeste 39 Sudoeste 0 -- -- 24
2019-08-11 15:00:00 27.7 19 Sudoeste 40 Sudoeste 0 -- -- 26
2019-08-11 14:00:00 26.5 27 Sudoeste 45 Sudoeste 0 -- -- 29
2019-08-11 13:00:00 25 26 Sudoeste 41 Sudoeste 0 -- -- 36
2019-08-11 12:00:00 24.1 28 Sudoeste 52 Sudoeste 0 -- -- 35
2019-08-11 11:00:00 23.4 13 Sur 25 Sur 0 -- -- 47
2019-08-11 10:00:00 21.3 14 Sur 22 Sur 0 -- -- 62
2019-08-11 09:00:00 18.6 12 Sur 20 Sur 0 -- -- 80
2019-08-11 08:00:00 16.5 15 Sur 20 Sur 0 -- -- 88
2019-08-11 07:00:00 16.4 10 Sur 22 Sur 0 -- -- 88
2019-08-11 06:00:00 16.7 9 Sur 21 Sur 0 -- -- 81
2019-08-11 05:00:00 17.3 13 Sur 22 Sur 0 -- -- 76
2019-08-11 04:00:00 17.7 15 Sur 24 Sur 0 -- -- 75
2019-08-11 03:00:00 17.8 13 Sur 22 Sur 0 -- -- 78
2019-08-11 02:00:00 17.8 14 Sudeste 28 Sudeste 0 -- -- 87
2019-08-11 01:00:00 18.2 19 Sudeste 29 Sudeste 0 -- -- 91
2019-08-11 00:00:00 18.6 16 Sur 25 Sudeste 0 -- -- 92
2019-08-10 23:00:00 19.5 17 Sur 33 Sur 0 -- -- 87
2019-08-10 22:00:00 20.6 23 Sudeste 30 Sudeste 0 -- -- 81
2019-08-10 21:00:00 23 16 Sur 35 Sudeste 0 -- -- 66
2019-08-10 20:00:00 25.2 23 Sudeste 36 Sudeste 0 -- -- 59
2019-08-10 19:00:00 27.1 22 Sudeste 40 Sudeste 0 -- -- 50
2019-08-10 18:00:00 26.8 27 Sudeste 41 Sudeste 0 -- -- 51
2019-08-10 17:00:00 28.2 25 Sur 41 Sudeste 0 -- -- 44
2019-08-10 16:00:00 28.5 21 Sur 47 Sudoeste 0 -- -- 41
2019-08-10 15:00:00 29.5 26 Sudoeste 48 Sudoeste 0 -- -- 23
2019-08-10 14:00:00 27.8 14 Sur 35 Sur 0 -- -- 35
2019-08-10 13:00:00 27 13 Sur 30 Sur 0 -- -- 38
2019-08-10 12:00:00 25.2 14 Sudoeste 31 Sudoeste 0 -- -- 45
2019-08-10 11:00:00 23.7 11 Sudoeste 25 Oeste 0 -- -- 53
2019-08-10 10:00:00 22.3 9 Sudoeste 18 Noroeste 0 -- -- 59
2019-08-10 09:00:00 19.6 0 Calma 6 Este 0 -- -- 66
2019-08-10 08:00:00 16.2 5 Este 11 Sudeste 0 -- -- 76
2019-08-10 07:00:00 14.9 6 Este 12 Este 0 -- -- 77
2019-08-10 06:00:00 14.8 4 Este 12 Este 0 -- -- 76
2019-08-10 05:00:00 15.6 6 Sudeste 12 Este 0 -- -- 75
2019-08-10 04:00:00 16.4 5 Sudeste 19 Este 0 -- -- 71
2019-08-10 03:00:00 17.4 6 Sudeste 13 Este 0 -- -- 66
2019-08-10 02:00:00 19.1 4 Este 12 Este 0 -- -- 62
2019-08-10 01:00:00 20.6 4 Oeste 8 Oeste 0 -- -- 51
2019-08-10 00:00:00 21.5 4 Sudeste 14 Sudoeste 0 -- -- 48
2019-08-09 23:00:00 23.3 9 Sudoeste 16 Sudoeste 0 -- -- 43
2019-08-09 22:00:00 24.8 13 Sudoeste 22 Oeste 0 -- -- 39
2019-08-09 21:00:00 27 19 Sudoeste 32 Sudoeste 0 -- -- 33
2019-08-09 20:00:00 29.4 20 Sudoeste 36 Oeste 0 -- -- 29
2019-08-09 19:00:00 30.4 22 Oeste 36 Oeste 0 -- -- 26
2019-08-09 18:00:00 31.7 19 Sudoeste 33 Sudoeste 0 -- -- 23
2019-08-09 17:00:00 31.2 16 Oeste 34 Oeste 0 -- -- 24
2019-08-09 16:00:00 30.8 17 Oeste 35 Sudoeste 0 -- -- 25
2019-08-09 15:00:00 30.4 16 Oeste 37 Oeste 0 -- -- 24
2019-08-09 14:00:00 29.3 18 Oeste 30 Oeste 0 -- -- 26
2019-08-09 13:00:00 27.3 15 Sudoeste 31 Oeste 0 -- -- 31
2019-08-09 12:00:00 26.3 18 Sudoeste 31 Sudoeste 0 -- -- 32
2019-08-09 11:00:00 25.4 10 Sudoeste 25 Oeste 0 -- -- 35
2019-08-09 10:00:00 23.9 15 Sudoeste 24 Oeste 0 -- -- 39
2019-08-09 09:00:00 19.4 3 Nordeste 8 Este 0 -- -- 56
2019-08-09 08:00:00 15.6 5 Este 8 Este 0 -- -- 66
2019-08-09 07:00:00 14.2 2 Este 6 Este 0 -- -- 69
2019-08-09 06:00:00 15.7 5 Este 11 Este 0 -- -- 65
2019-08-09 05:00:00 15.4 3 Este 7 Sudeste 0 -- -- 67
2019-08-09 04:00:00 16.6 5 Sudeste 14 Sur 0 -- -- 65
2019-08-09 03:00:00 17.3 3 Sur 10 Sur 0 -- -- 63
2019-08-09 02:00:00 18.3 2 Norte 12 Sur 0 -- -- 62
2019-08-09 01:00:00 19.2 2 Norte 13 Sur 0 -- -- 61
2019-08-09 00:00:00 20.4 5 Sur 16 Sur 0 -- -- 59
2019-08-08 23:00:00 21.6 15 Sur 19 Sur 0 -- -- 56
2019-08-08 22:00:00 23.1 14 Sur 27 Sudoeste 0 -- -- 49
2019-08-08 21:00:00 26.9 19 Sudoeste 38 Sudoeste 0 -- -- 32
2019-08-08 20:00:00 29.1 21 Sudoeste 41 Sudoeste 0 -- -- 29
2019-08-08 19:00:00 30.2 27 Sudoeste 42 Sudoeste 0 -- -- 27
2019-08-08 18:00:00 30.9 18 Sudoeste 40 Sudoeste 0 -- -- 27
2019-08-08 17:00:00 29.6 21 Sudoeste 39 Sudoeste 0 -- -- 28
2019-08-08 16:00:00 30.1 14 Sudoeste 34 Sudoeste 0 -- -- 28
2019-08-08 15:00:00 28.9 19 Oeste 35 Sudoeste 0 -- -- 30
2019-08-08 14:00:00 27.4 17 Oeste 33 Sudoeste 0 -- -- 33
2019-08-08 13:00:00 26 9 Sudoeste 30 Sudoeste 0 -- -- 36
2019-08-08 12:00:00 24.7 9 Oeste 21 Oeste 0 -- -- 33
2019-08-08 11:00:00 23.5 9 Noroeste 19 Noroeste 0 -- -- 34
2019-08-08 10:00:00 21.3 8 Oeste 18 Oeste 0 -- -- 43
2019-08-08 09:00:00 19.8 9 Noroeste 19 Oeste 0 -- -- 48
2019-08-08 08:00:00 16 6 Nordeste 10 Este 0 -- -- 62
2019-08-08 07:00:00 14.5 6 Este 18 Este 0 -- -- 65
2019-08-08 06:00:00 14.4 8 Este 15 Este 0 -- -- 63
2019-08-08 05:00:00 14.9 3 Nordeste 6 Nordeste 0 -- -- 61
2019-08-08 04:00:00 16.4 5 Sudoeste 9 Sudoeste 0 -- -- 56
2019-08-08 03:00:00 17.5 3 Oeste 14 Sudoeste 0 -- -- 51
2019-08-08 02:00:00 18.7 7 Sudoeste 14 Sudoeste 0 -- -- 46
2019-08-08 01:00:00 20.7 11 Sudoeste 23 Sudoeste 0 -- -- 39
2019-08-08 00:00:00 21.1 9 Sudoeste 21 Sudoeste 0 -- -- 38
2019-08-07 23:00:00 21.5 14 Sudoeste 23 Sudoeste 0 -- -- 37
2019-08-07 22:00:00 23 13 Sudoeste 27 Sudoeste 0 -- -- 31
2019-08-07 21:00:00 23.2 8 Sudoeste 17 Sudoeste 0 -- -- 33
2019-08-07 20:00:00 24.2 10 Oeste 24 Oeste 0 -- -- 32
2019-08-07 19:00:00 26.2 17 Oeste 32 Oeste 0 -- -- 27
2019-08-07 18:00:00 25.7 12 Noroeste 30 Sudoeste 0 -- -- 26
2019-08-07 17:00:00 26.4 16 Sudoeste 28 Sudoeste 0 -- -- 24
2019-08-07 16:00:00 25.6 16 Oeste 32 Oeste 0 -- -- 24
2019-08-07 15:00:00 25.5 17 Oeste 32 Sudoeste 0 -- -- 25
2019-08-07 14:00:00 25.7 17 Oeste 26 Oeste 0 -- -- 20
2019-08-07 13:00:00 24.2 14 Oeste 28 Oeste 0 -- -- 28
2019-08-07 12:00:00 23.1 17 Oeste 34 Oeste 0 -- -- 33
2019-08-07 11:00:00 23 19 Oeste 33 Sudoeste 0 -- -- 34
2019-08-07 10:00:00 23 14 Oeste 24 Oeste 0 -- -- 34
2019-08-07 09:00:00 18.5 3 Este 9 Este 0 -- -- 52
2019-08-07 08:00:00 15.5 2 Este 7 Sudeste 0 -- -- 59
2019-08-07 07:00:00 14.5 0 Calma 10 Sudeste 0 -- -- 60
2019-08-07 06:00:00 15.6 8 Sudeste 13 Este 0 -- -- 51
2019-08-07 05:00:00 15.3 7 Este 10 Este 0 -- -- 55
2019-08-07 04:00:00 15.7 4 Este 6 Este 0 -- -- 67
2019-08-07 03:00:00 17.8 0 Calma 12 Sur 0 -- -- 60
2019-08-07 02:00:00 18.8 10 Sur 15 Sur 0 -- -- 60
2019-08-07 01:00:00 19.6 12 Sur 21 Sur 0 -- -- 64
2019-08-07 00:00:00 20.4 18 Sur 26 Sur 0 -- -- 68
2019-08-06 23:00:00 21.6 15 Sur 23 Sur 0 -- -- 62
2019-08-06 22:00:00 24.9 15 Sudoeste 33 Sudoeste 0 -- -- 14
2019-08-06 21:00:00 27.2 20 Sudoeste 39 Sudoeste 0 -- -- 14
2019-08-06 20:00:00 29.3 24 Sudoeste 40 Sudoeste 0 -- -- 12
2019-08-06 19:00:00 30.9 26 Sudoeste 44 Sudoeste 0 -- -- 11
2019-08-06 18:00:00 31.4 24 Sudoeste 38 Sudoeste 0 -- -- 13
2019-08-06 17:00:00 31 21 Sudoeste 40 Oeste 0 -- -- 15
2019-08-06 16:00:00 31.3 15 Sudoeste 39 Oeste 0 -- -- 15
2019-08-06 15:00:00 30.8 17 Sudoeste 31 Sudoeste 0 -- -- 18
2019-08-06 14:00:00 29.7 6 Oeste 30 Sudoeste 0 -- -- 20
2019-08-06 13:00:00 28.6 21 Oeste 34 Oeste 0 -- -- 21
2019-08-06 12:00:00 27.6 18 Oeste 37 Oeste 0 -- -- 23
2019-08-06 11:00:00 26.4 24 Oeste 36 Sudoeste 0 -- -- 23
2019-08-06 10:00:00 25.1 15 Oeste 24 Oeste 0 -- -- 27
2019-08-06 09:00:00 20.4 7 Este 13 Este 0 -- -- 74
2019-08-06 08:00:00 16.8 10 Este 17 Sudeste 0 -- -- 83
2019-08-06 07:00:00 16.2 8 Sudeste 13 Este 0 -- -- 90
2019-08-06 06:00:00 16.5 4 Sudeste 10 Sudeste 0 -- -- 87
2019-08-06 05:00:00 17.2 0 Calma 5 Sudeste 0 -- -- 80
2019-08-06 04:00:00 16.7 0 Calma 9 Sur 0 -- -- 83
2019-08-06 03:00:00 17.3 0 Calma 5 Sudeste 0 -- -- 82
2019-08-06 02:00:00 17.7 0 Calma 4 Sur 0 -- -- 86
2019-08-06 01:00:00 18.2 0 Calma 14 Sur 0 -- -- 88
2019-08-06 00:00:00 18.8 9 Sur 19 Sur 0 -- -- 87
2019-08-05 23:00:00 19.5 13 Sur 26 Sur 0 -- -- 85
2019-08-05 22:00:00 21.1 16 Sur 30 Sur 0 -- -- 76
2019-08-05 21:00:00 24 19 Sur 32 Sur 0 -- -- 61
2019-08-05 20:00:00 26.8 21 Sudeste 35 Sudeste 0 -- -- 48
2019-08-05 19:00:00 28.5 23 Sudeste 37 Sudeste 0 -- -- 41
2019-08-05 18:00:00 29.8 20 Sur 33 Sudeste 0 -- -- 33
2019-08-05 17:00:00 30.3 18 Sur 35 Sur 0 -- -- 35
2019-08-05 16:00:00 30.1 15 Sur 38 Sur 0 -- -- 32
2019-08-05 15:00:00 29.5 18 Sudeste 34 Sur 0 -- -- 30
2019-08-05 14:00:00 28.7 18 Sudeste 28 Sudeste 0 -- -- 34
2019-08-05 13:00:00 27.8 23 Sudeste 34 Sudeste 0 -- -- 38
2019-08-05 12:00:00 -- 22 Oeste 33 Oeste 0 -- -- --
2019-08-05 11:00:00 27.2 22 Oeste 30 Sudoeste 0 -- -- 25
2019-08-05 10:00:00 24.4 4 Sur 11 Sur 0 -- -- 46
2019-08-05 09:00:00 19.1 0 Calma 5 Este 0 -- -- 71
2019-08-05 08:00:00 16 3 Este 9 Sudeste 0 -- -- 79
2019-08-05 07:00:00 15.1 2 Este 9 Este 0 -- -- 82
2019-08-05 06:00:00 15.3 4 Este 9 Sudoeste 0 -- -- 80
2019-08-05 05:00:00 15.6 3 Este 5 Oeste 0 -- -- 77
2019-08-05 04:00:00 16.4 4 Sur 6 Sur 0 -- -- 75
2019-08-05 03:00:00 16.3 3 Sudoeste 8 Sur 0 -- -- 82
2019-08-05 02:00:00 17.1 0 Calma 13 Sur 0 -- -- 84
2019-08-05 01:00:00 17.9 10 Sur 17 Sur 0 -- -- 84
2019-08-05 00:00:00 18.5 9 Sur 17 Sur 0 -- -- 81
2019-08-04 23:00:00 19.7 9 Sur 26 Sur 0 -- -- 75
2019-08-04 22:00:00 21.3 20 Sur 32 Sur 0 -- -- 67
2019-08-04 21:00:00 24.1 21 Sudeste 33 Sur 0 -- -- 54
2019-08-04 20:00:00 26.6 20 Sur 34 Sudeste 0 -- -- 48
2019-08-04 19:00:00 27.5 24 Sudeste 34 Sudeste 0 -- -- 47
2019-08-04 18:00:00 28.5 18 Sur 37 Sur 0 -- -- 42
2019-08-04 17:00:00 30.2 21 Sur 36 Sudeste 0 -- -- 35
2019-08-04 16:00:00 30.2 22 Sur 38 Sudeste 0 -- -- 33
2019-08-04 15:00:00 30.2 20 Sur 52 Sudoeste 0 -- -- 31
2019-08-04 14:00:00 29.7 24 Sudoeste 48 Sudoeste 0 -- -- 24
2019-08-04 13:00:00 29.4 22 Sudoeste 35 Sudoeste 0 -- -- 24
2019-08-04 12:00:00 28.3 11 Oeste 26 Oeste 0 -- -- 23
2019-08-04 11:00:00 26.4 12 Sudoeste 20 Sudoeste 0 -- -- 38
2019-08-04 10:00:00 24.5 8 Sudoeste 14 Sudoeste 0 -- -- 43
2019-08-04 09:00:00 19.1 3 Oeste 13 Este 0 -- -- 66
2019-08-04 08:00:00 15.9 8 Este 10 Sudeste 0 -- -- 75
2019-08-04 07:00:00 14.6 3 Este 9 Este 0 -- -- 80
2019-08-04 06:00:00 -- 5 Sudeste 7 Sudeste 0 -- -- --
2019-08-04 05:00:00 16.5 4 Este 10 Sur 0 -- -- 70
2019-08-04 04:00:00 17.7 8 Sur 19 Sur 0 -- -- 66
2019-08-04 03:00:00 17.9 15 Sur 21 Sur 0 -- -- 67
2019-08-04 02:00:00 17.9 16 Sur 19 Sur 0 -- -- 71
2019-08-04 01:00:00 17.6 12 Sur 15 Sur 0 -- -- 75
2019-08-04 00:00:00 18.3 4 Sur 22 Sur 0 -- -- 73
2019-08-03 23:00:00 19.2 17 Sur 25 Sur 0 -- -- 71
2019-08-03 22:00:00 20.7 17 Sur 27 Sur 0 -- -- 63
2019-08-03 21:00:00 23.1 20 Sur 32 Sur 0 -- -- 57
2019-08-03 20:00:00 25.8 22 Sur 38 Sudeste 0 -- -- 49
2019-08-03 19:00:00 27.5 26 Sudeste 40 Sudeste 0 -- -- 42
2019-08-03 18:00:00 28.9 19 Sur 35 Sur 0 -- -- 36
2019-08-03 17:00:00 28.9 18 Sur 36 Sur 0 -- -- 36
2019-08-03 16:00:00 29.1 20 Sur 41 Sur 0 -- -- 35
2019-08-03 15:00:00 28.7 22 Sur 37 Sudeste 0 -- -- 34
2019-08-03 14:00:00 27.8 18 Sur 30 Sur 0 -- -- 34
2019-08-03 13:00:00 27.2 19 Sur 31 Sur 0 -- -- 35
2019-08-03 12:00:00 25.9 18 Sur 28 Sur 0 -- -- 41
2019-08-03 11:00:00 24.7 14 Sur 25 Sudeste 0 -- -- 43
2019-08-03 10:00:00 23.2 15 Sur 21 Sur 0 -- -- 44
2019-08-03 09:00:00 17.6 0 Calma 3 Oeste 0 -- -- 64
2019-08-03 08:00:00 13.5 0 Calma 5 Oeste 0 -- -- 77
2019-08-03 07:00:00 12 2 Nordeste 5 Este 0 -- -- 82
2019-08-03 06:00:00 13.1 0 Calma 4 Este 0 -- -- 79
2019-08-03 05:00:00 13.1 0 Calma 4 Este 0 -- -- 78
2019-08-03 04:00:00 13.5 3 Este 8 Este 0 -- -- 79
2019-08-03 03:00:00 14.7 4 Sudeste 7 Este 0 -- -- 76
2019-08-03 02:00:00 15.7 4 Nordeste 13 Sur 0 -- -- 73
2019-08-03 01:00:00 16.9 10 Sur 18 Sur 0 -- -- 69
2019-08-03 00:00:00 17.3 13 Sur 22 Sur 0 -- -- 67
2019-08-02 23:00:00 18.5 15 Sur 21 Sur 0 -- -- 63
2019-08-02 22:00:00 19.8 13 Sur 21 Sur 0 -- -- 60
2019-08-02 21:00:00 21.9 19 Sur 26 Sur 0 -- -- 53
2019-08-02 20:00:00 23.8 18 Sur 33 Sur 0 -- -- 48
2019-08-02 19:00:00 25.5 21 Sur 38 Sur 0 -- -- 44
2019-08-02 18:00:00 27.5 21 Sur 33 Sur 0 -- -- 39
2019-08-02 17:00:00 28.4 18 Sur 34 Sur 0 -- -- 34
2019-08-02 16:00:00 27.5 19 Sudeste 36 Oeste 0 -- -- 36
2019-08-02 15:00:00 28.6 18 Oeste 29 Oeste 0 -- -- 24
2019-08-02 14:00:00 27.8 17 Noroeste 30 Sudoeste 0 -- -- 24
2019-08-02 13:00:00 26.7 17 Sudoeste 32 Oeste 0 -- -- 24
2019-08-02 12:00:00 26.1 17 Oeste 28 Sudoeste 0 -- -- 27
2019-08-02 11:00:00 24.2 9 Sur 17 Sudeste 0 -- -- 47
2019-08-02 10:00:00 20.8 11 Sur 18 Sur 0 -- -- 74
2019-08-02 09:00:00 15.8 5 Oeste 7 Oeste 0 -- -- 86
2019-08-02 08:00:00 13.5 2 Este 6 Este 0 -- -- 91
2019-08-02 07:00:00 12.7 4 Este 10 Este 0 -- -- 92
2019-08-02 06:00:00 13.3 5 Este 8 Este 0 -- -- 92
2019-08-02 05:00:00 13.7 6 Este 8 Este 0 -- -- 91
2019-08-02 04:00:00 14.6 8 Este 11 Este 0 -- -- 89
2019-08-02 03:00:00 15.5 0 Calma 14 Este 0 -- -- 90
2019-08-02 02:00:00 16.2 6 Este 19 Nordeste 0 -- -- 90
2019-08-02 01:00:00 16.8 6 Este 18 Nordeste 0 -- -- 89
2019-08-02 00:00:00 18 8 Sudoeste 20 Sur 0 -- -- 90
2019-08-01 23:00:00 19.2 13 Sur 21 Sur 0 -- -- 85
2019-08-01 22:00:00 20.4 13 Sur 26 Sur 0 -- -- 78
2019-08-01 21:00:00 23.1 15 Sur 28 Sur 0 -- -- 64
2019-08-01 20:00:00 25.3 19 Sur 29 Sur 0 -- -- 55
2019-08-01 19:00:00 26.1 21 Sur 32 Sur 0 -- -- 52
2019-08-01 18:00:00 28 17 Sur 37 Este 0 -- -- 44
2019-08-01 17:00:00 28.5 18 Sur 38 Sudeste 0 -- -- 38
2019-08-01 16:00:00 28.5 20 Sur 35 Sur 0 -- -- 34
2019-08-01 15:00:00 27.7 14 Sudeste 28 Sur 0 -- -- 36
2019-08-01 14:00:00 26.7 14 Sur 28 Sudoeste 0 -- -- 37
2019-08-01 13:00:00 24.8 17 Sur 29 Sudeste 0 -- -- 42
2019-08-01 12:00:00 23.1 17 Sur 27 Sur 0 -- -- 45
2019-08-01 11:00:00 21.4 17 Sur 28 Sudeste 0 -- -- 48
2019-08-01 10:00:00 19.3 17 Sur 30 Sur 0 -- -- 54
2019-08-01 09:00:00 17.3 16 Sur 26 Sur 0 -- -- 60
2019-08-01 08:00:00 13.6 10 Sur 24 Sur 0 -- -- 95
2019-08-01 07:00:00 13.2 15 Sur 30 Sur 0 -- -- 97
2019-08-01 06:00:00 13.7 16 Sur 35 Sur 0 -- -- 95
2019-08-01 05:00:00 13.6 19 Sur 31 Sur 0 -- -- 97
2019-08-01 04:00:00 13.9 14 Sur 23 Sudeste 0 -- -- 97
2019-08-01 03:00:00 14.1 8 Sur 29 Sur 0 -- -- 93
2019-08-01 02:00:00 14.8 20 Sur 30 Sudeste 0 -- -- 92
2019-08-01 01:00:00 15.3 15 Sur 22 Sur 0 -- -- 95
2019-08-01 00:00:00 15.7 13 Sur 21 Sur 0 -- -- 94
2019-07-31 23:00:00 15.8 13 Sur 18 Sur 0 -- -- 94
2019-07-31 22:00:00 16.3 8 Sur 22 Sur 0 -- -- 89
2019-07-31 21:00:00 17.3 15 Sur 29 Sudeste 0 -- -- 84
2019-07-31 20:00:00 18.4 18 Sudeste 34 Sur 0 -- -- 79
2019-07-31 19:00:00 20 24 Sur 41 Sur 0 -- -- 73
2019-07-31 18:00:00 20.6 23 Sur 36 Sudeste 0 -- -- 71
2019-07-31 17:00:00 21.6 22 Sudeste 35 Sudeste 0 -- -- 63
2019-07-31 16:00:00 21.9 24 Sudeste 42 Sudeste 0 -- -- 60
2019-07-31 15:00:00 22.1 28 Sudeste 45 Sudeste 0 -- -- 53
2019-07-31 14:00:00 21.6 26 Sudeste 44 Sudeste 0 -- -- 52
2019-07-31 13:00:00 20.9 26 Sur 41 Sur 0 -- -- 57
2019-07-31 12:00:00 19.7 28 Sudeste 44 Sudeste 0 -- -- 59
2019-07-31 11:00:00 18.7 26 Sur 41 Sudeste 0 -- -- 74
2019-07-31 10:00:00 18.1 19 Sudeste 28 Sudeste 0 -- -- 73
2019-07-31 09:00:00 15.4 6 Sudeste 17 Sudeste 0 -- -- 83
2019-07-31 08:00:00 13.7 6 Sudeste 13 Sudeste 0 -- -- 90
2019-07-31 07:00:00 12.9 5 Sur 14 Sur 0 -- -- 91
2019-07-31 06:00:00 13 9 Sudeste 14 Sudeste 0 -- -- 93
2019-07-31 05:00:00 11.4 3 Nordeste 5 Nordeste 0 -- -- 76
2019-07-31 04:00:00 11.8 0 Calma 7 Este 0 -- -- 72
2019-07-31 03:00:00 12.6 3 Este 5 Nordeste 0 -- -- 66
2019-07-31 02:00:00 13.6 0 Calma 10 Norte 0 -- -- 61
2019-07-31 01:00:00 15.2 5 Norte 14 Norte 0 -- -- 57
2019-07-31 00:00:00 16.6 8 Norte 17 Sur 0 -- -- 54
2019-07-30 23:00:00 17.8 8 Sur 21 Sudoeste 0 -- -- 85
2019-07-30 22:00:00 18.4 13 Sudeste 27 Sur 0 -- -- 81
2019-07-30 21:00:00 19.8 11 Este 33 Nordeste 0 -- -- 72
2019-07-30 20:00:00 20.5 18 Este 32 Este 0 -- -- 56
2019-07-30 19:00:00 21.7 21 Nordeste 32 Este 0 -- -- 48
2019-07-30 18:00:00 23.4 15 Norte 32 Nordeste 0 -- -- 42
2019-07-30 17:00:00 25.9 11 Sudeste 28 Sudeste 0 -- -- 37
2019-07-30 16:00:00 26.7 11 Sudeste 48 Sudoeste 0 -- -- 29
2019-07-30 15:00:00 25.6 21 Oeste 37 Sudoeste 0 -- -- 29
2019-07-30 14:00:00 24.6 18 Sudoeste 32 Sudoeste 0 -- -- 30
2019-07-30 13:00:00 22.4 10 Nordeste 19 Norte 0 -- -- 43
2019-07-30 12:00:00 21.3 8 Norte 16 Noroeste 0 -- -- 47
2019-07-30 11:00:00 20 9 Norte 18 Noroeste 0 -- -- 48
2019-07-30 10:00:00 19 9 Norte 15 Norte 0 -- -- 44
2019-07-30 09:00:00 16.7 5 Norte 7 Norte 0 -- -- 61
2019-07-30 08:00:00 13.1 6 Nordeste 12 Nordeste 0 -- -- 66
2019-07-30 07:00:00 11.4 5 Nordeste 11 Nordeste 0 -- -- 76
2019-07-30 06:00:00 11 4 Este 9 Este 0 -- -- 80
2019-07-30 05:00:00 12.1 5 Este 12 Este 0 -- -- 78
2019-07-30 04:00:00 13.1 8 Este 10 Este 0 -- -- 77
2019-07-30 03:00:00 14.5 5 Sudeste 10 Este 0 -- -- 76
2019-07-30 02:00:00 15.5 6 Este 9 Este 0 -- -- 78
2019-07-30 01:00:00 16.9 2 Oeste 17 Sur 0 -- -- 78
2019-07-30 00:00:00 17.9 9 Sudoeste 25 Sur 0 -- -- 75
2019-07-29 23:00:00 18.8 17 Sur 27 Sur 0 -- -- 72
2019-07-29 22:00:00 20 17 Sur 30 Sur 0 -- -- 67
2019-07-29 21:00:00 22.6 16 Sur 28 Sur 0 -- -- 56
2019-07-29 20:00:00 23.5 20 Sudeste 33 Sudeste 0 -- -- 55
2019-07-29 19:00:00 26.7 18 Sur 33 Sur 0 -- -- 41
2019-07-29 18:00:00 27.8 15 Sudoeste 33 Sudoeste 0 -- -- 28
2019-07-29 17:00:00 27.6 18 Sudoeste 35 Sudoeste 0 -- -- 28
2019-07-29 16:00:00 27.8 22 Sudoeste 39 Sudoeste 0 -- -- 26
2019-07-29 15:00:00 26.8 23 Oeste 37 Sudoeste 0 -- -- 29
2019-07-29 14:00:00 25.7 17 Oeste 37 Sudoeste 0 -- -- 33
2019-07-29 13:00:00 24.9 13 Oeste 32 Oeste 0 -- -- 34
2019-07-29 12:00:00 23.5 18 Sudoeste 28 Sudoeste 0 -- -- 36
2019-07-29 11:00:00 22.2 18 Oeste 24 Sudoeste 0 -- -- 38
2019-07-29 10:00:00 20.5 12 Sudoeste 20 Sudoeste 0 -- -- 43
2019-07-29 09:00:00 15.3 0 Calma 8 Este 0 -- -- 74
2019-07-29 08:00:00 12.6 5 Sudeste 10 Este 0 -- -- 76
2019-07-29 07:00:00 10.6 6 Sudeste 11 Este 0 -- -- 85
2019-07-29 06:00:00 10.6 0 Calma 8 Sudeste 0 -- -- 83
2019-07-29 05:00:00 11.3 7 Este 8 Este 0 -- -- 82
2019-07-29 04:00:00 12 3 Este 13 Sur 0 -- -- 83
2019-07-29 03:00:00 12.1 5 Sur 15 Sur 0 -- -- 84
2019-07-29 02:00:00 12.6 9 Sur 14 Sur 0 -- -- 84
2019-07-29 01:00:00 13.5 8 Sur 13 Sur 0 -- -- 78
2019-07-29 00:00:00 14.3 8 Sur 12 Sudoeste 0 -- -- 73
2019-07-28 23:00:00 15.7 12 Sur 22 Sur 0 -- -- 66
2019-07-28 22:00:00 17.4 9 Sur 30 Sur 0 -- -- 58
2019-07-28 21:00:00 20.5 19 Sur 27 Sur 0 -- -- 47
2019-07-28 20:00:00 22.5 17 Sur 29 Sudeste 0 -- -- 40
2019-07-28 19:00:00 24.8 12 Oeste 27 Oeste 0 -- -- 30
2019-07-28 18:00:00 24.6 14 Oeste 27 Sudoeste 0 -- -- 31
2019-07-28 17:00:00 23.6 14 Oeste 30 Oeste 0 -- -- 29
2019-07-28 16:00:00 22.9 9 Oeste 21 Noroeste 0 -- -- 28
2019-07-28 15:00:00 21.2 9 Noroeste 21 Noroeste 0 -- -- 31
2019-07-28 14:00:00 19.9 12 Oeste 27 Norte 0 -- -- 35
2019-07-28 13:00:00 18.5 10 Norte 29 Norte 0 -- -- 46
2019-07-28 12:00:00 17.4 15 Norte 27 Norte 0 -- -- 51
2019-07-28 11:00:00 15.6 16 Noroeste 30 Norte 0 -- -- 59
2019-07-28 10:00:00 13.5 21 Norte 32 Noroeste 0 -- -- 65
2019-07-28 09:00:00 10.9 17 Norte 29 Norte 0 -- -- 79
2019-07-28 08:00:00 9.5 17 Norte 30 Norte 0 -- -- 83
2019-07-28 07:00:00 8.5 17 Noroeste 24 Noroeste 0 -- -- 85
2019-07-28 06:00:00 8.9 13 Norte 24 Norte 0 -- -- 89
2019-07-28 05:00:00 8.8 13 Norte 26 Nordeste 0 -- -- 89
2019-07-28 04:00:00 9.3 13 Norte 31 Noroeste 0 -- -- 87
2019-07-28 03:00:00 9.4 13 Norte 30 Noroeste 0 -- -- 88
2019-07-28 02:00:00 10.2 16 Norte 31 Norte 0 -- -- 86
2019-07-28 01:00:00 11.4 18 Norte 28 Norte 0 -- -- 86
2019-07-28 00:00:00 11.4 14 Norte 27 Norte 0 -- -- 86
2019-07-27 23:00:00 12.6 13 Norte 28 Norte 0 -- -- 83
2019-07-26 12:00:00 -- -- -- -- -- -- -- -- --
2019-07-26 11:00:00 22.1 2 Noroeste 15 Sudeste 0 -- -- 37
2019-07-26 10:00:00 21.4 6 Sudeste 18 Sudoeste 0 -- -- 40
2019-07-26 09:00:00 20 10 Sudoeste 19 Sur 0 -- -- 44
2019-07-26 08:00:00 19 16 Sur 22 Sur 0 -- -- 43
2019-07-26 07:00:00 17.7 9 Sur 17 Sur 0 -- -- 45
2019-07-26 06:00:00 18.1 12 Sur 18 Sudeste 0 -- -- 46
2019-07-26 05:00:00 18.2 13 Sur 18 Sudeste 0 -- -- 46
2019-07-26 04:00:00 18.2 11 Sur 22 Sur 0 -- -- 47
2019-07-26 03:00:00 18.5 13 Sur 27 Sur 0 -- -- 49
2019-07-26 02:00:00 19.3 18 Sur 27 Sur 0 -- -- 49
2019-07-26 01:00:00 18.9 15 Sur 25 Sur 0 -- -- 50
2019-07-26 00:00:00 20 14 Sur 30 Sudeste 0 -- -- 47
2019-07-25 23:00:00 20.7 19 Sudeste 31 Sudeste 0 -- -- 49
2019-07-25 22:00:00 21.8 21 Sur 31 Sur 0 -- -- 49
2019-07-25 21:00:00 23.5 19 Sudeste 40 Sudeste 0 -- -- 44
2019-07-25 20:00:00 25.3 24 Sudeste 37 Sudeste 0 -- -- 39
2019-07-25 19:00:00 26.7 24 Sudeste 39 Sudeste 0 -- -- 36
2019-07-25 18:00:00 28.4 27 Sudeste 42 Sudeste 0 -- -- 31
2019-07-25 17:00:00 28.1 24 Sudeste 38 Sudeste 0 -- -- 30
2019-07-25 16:00:00 29.1 22 Sudeste 40 Sudeste 0 -- -- 27
2019-07-25 15:00:00 29.6 20 Sudeste 38 Sudeste 0 -- -- 25
2019-07-25 14:00:00 29.4 19 Sur 35 Sur 0 -- -- 27
2019-07-25 13:00:00 28.4 21 Sur 33 Sudeste 0 -- -- 28
2019-07-25 12:00:00 27.6 21 Sur 32 Sur 0 -- -- 27
2019-07-25 11:00:00 25.8 18 Sur 27 Sur 0 -- -- 28
2019-07-25 10:00:00 24.8 16 Sudeste 24 Sudeste 0 -- -- 29
2019-07-25 09:00:00 22.6 12 Sur 20 Sur 0 -- -- 33
2019-07-25 08:00:00 19.8 14 Sur 18 Sur 0 -- -- 41
2019-07-25 07:00:00 18.4 15 Sur 19 Sur 0 -- -- 44
2019-07-25 06:00:00 17.8 14 Sur 18 Sur 0 -- -- 46
2019-07-25 05:00:00 18.1 12 Sur 17 Sur 0 -- -- 45
2019-07-25 04:00:00 18.4 9 Sur 17 Sur 0 -- -- 44
2019-07-25 03:00:00 -- -- -- -- -- -- -- -- --
2019-07-25 02:00:00 17.5 4 Oeste 5 Oeste 0 -- -- 56
2019-07-25 01:00:00 19.1 0 Calma 18 Sur 0 -- -- 51
2019-07-25 00:00:00 20.5 13 Sudeste 20 Sur 0 -- -- 49
2019-07-24 23:00:00 21 13 Sur 27 Sur 0 -- -- 48
2019-07-24 22:00:00 22.4 17 Sur 31 Sudeste 0 -- -- 44
2019-07-24 21:00:00 24.6 17 Sur 35 Sudeste 0 -- -- 35
2019-07-24 20:00:00 26.8 23 Sudeste 43 Sudeste 0 -- -- 30
2019-07-24 19:00:00 27.8 25 Sudeste 42 Sudeste 0 -- -- 29
2019-07-24 18:00:00 28.8 30 Sudeste 41 Sudeste 0 -- -- 26
2019-07-24 17:00:00 30.2 20 Sudeste 40 Sur 0 -- -- 20
2019-07-24 16:00:00 30.5 21 Sudeste 39 Sudeste 0 -- -- 19
2019-07-24 15:00:00 30.8 22 Sur 39 Sur 0 -- -- 20
2019-07-24 14:00:00 30 18 Sudeste 33 Este 0 -- -- 21
2019-07-24 13:00:00 29.5 16 Sudeste 33 Sudeste 0 -- -- 24
2019-07-24 12:00:00 27.9 15 Sur 26 Sudeste 0 -- -- 28
2019-07-24 11:00:00 27.2 14 Sur 23 Sur 0 -- -- 27
2019-07-24 10:00:00 24.5 9 Sur 14 Sur 0 -- -- 36
2019-07-24 09:00:00 20.9 4 Este 9 Este 0 -- -- 46
2019-07-24 08:00:00 15.6 0 Calma 4 Este 0 -- -- 60
2019-07-24 07:00:00 15.1 2 Nordeste 5 Nordeste 0 -- -- 58
2019-07-24 06:00:00 14.9 0 Calma 5 Nordeste 0 -- -- 57
2019-07-24 05:00:00 14.2 0 Calma 7 Este 0 -- -- 62
2019-07-24 04:00:00 14.8 2 Oeste 10 Este 0 -- -- 63
2019-07-24 03:00:00 16.3 2 Este 7 Oeste 0 -- -- 56
2019-07-24 02:00:00 17.4 6 Este 9 Este 0 -- -- 54
2019-07-24 01:00:00 18.4 11 Sudeste 15 Este 0 -- -- 52
2019-07-24 00:00:00 19.8 7 Sudoeste 27 Sur 0 -- -- 46
2019-07-23 23:00:00 21.2 11 Sur 31 Sur 0 -- -- 42
2019-07-23 22:00:00 22.6 19 Sur 32 Sur 0 -- -- 38
2019-07-23 21:00:00 24.7 22 Sudeste 35 Sudeste 0 -- -- 33
2019-07-23 20:00:00 26.7 28 Sudeste 42 Sudeste 0 -- -- 30
2019-07-23 19:00:00 28.5 24 Sudeste 42 Sudeste 0 -- -- 28
2019-07-23 18:00:00 29.6 25 Sudeste 43 Sudeste 0 -- -- 25
2019-07-23 17:00:00 30 26 Sur 39 Sudeste 0 -- -- 23
2019-07-23 16:00:00 30.1 27 Sudeste 42 Este 0 -- -- 22
2019-07-23 15:00:00 29.8 23 Sudeste 39 Sudeste 0 -- -- 23
2019-07-23 14:00:00 30 18 Sudeste 38 Sudeste 0 -- -- 24
2019-07-23 13:00:00 28.7 25 Sudeste 38 Sudeste 0 -- -- 22
2019-07-23 12:00:00 28.1 22 Sudeste 37 Sudeste 0 -- -- 25
2019-07-23 11:00:00 26.4 21 Sur 33 Sudeste 0 -- -- 28
2019-07-23 10:00:00 24.4 16 Sur 26 Sur 0 -- -- 29
2019-07-23 09:00:00 22.1 12 Sur 19 Sur 0 -- -- 34
2019-07-23 08:00:00 18.8 12 Sudoeste 14 Sudoeste 0 -- -- 38
2019-07-23 07:00:00 19 11 Sudoeste 15 Sudeste 0 -- -- 35
2019-07-23 06:00:00 20.2 12 Sur 18 Sudeste 0 -- -- 32
2019-07-23 05:00:00 18.7 8 Sudoeste 15 Sudeste 0 -- -- 38
2019-07-23 04:00:00 18.6 7 Sudoeste 18 Sur 0 -- -- 40
2019-07-23 03:00:00 19.3 13 Sur 21 Sudoeste 0 -- -- 39
2019-07-23 02:00:00 19.7 12 Sudoeste 30 Sur 0 -- -- 37
2019-07-23 01:00:00 20.6 19 Sur 33 Sudeste 0 -- -- 33
2019-07-23 00:00:00 20.7 21 Sur 32 Sudeste 0 -- -- 30
2019-07-22 23:00:00 21 19 Sur 29 Sur 0 -- -- 24
2019-07-22 22:00:00 21.4 18 Sur 29 Sur 0 -- -- 31
2019-07-22 21:00:00 22.9 20 Sur 34 Sur 0 -- -- 39
2019-07-22 20:00:00 24.5 21 Sudeste 35 Sudeste 0 -- -- 37
2019-07-22 19:00:00 25.8 28 Sudeste 43 Sudeste 0 -- -- 32
2019-07-22 18:00:00 27.4 27 Sudeste 40 Sudeste 0 -- -- 31
2019-07-22 17:00:00 28.5 29 Sudeste 41 Sudeste 0 -- -- 27
2019-07-22 16:00:00 28.4 30 Sudeste 45 Sudeste 0 -- -- 22
2019-07-22 15:00:00 28.2 21 Sudeste 39 Sudeste 0 -- -- 25
2019-07-22 14:00:00 26.3 18 Sur 39 Sudeste 0 -- -- 26
2019-07-22 13:00:00 26.6 26 Sudeste 41 Sudeste 0 -- -- 19
2019-07-22 12:00:00 26.8 22 Sur 33 Sudeste 0 -- -- 21
2019-07-22 11:00:00 25.2 19 Sudeste 29 Sudeste 0 -- -- 22
2019-07-22 10:00:00 23 11 Sudoeste 16 Sudoeste 0 -- -- 30
2019-07-22 09:00:00 21 7 Sur 12 Sudoeste 0 -- -- 31
2019-07-22 08:00:00 17.3 0 Calma 5 Sur 0 -- -- 38
2019-07-22 07:00:00 16 3 Oeste 6 Oeste 0 -- -- 37
2019-07-22 06:00:00 16.5 5 Oeste 8 Sudoeste 0 -- -- 36
2019-07-22 05:00:00 16.8 5 Sudoeste 9 Sudoeste 0 -- -- 33
2019-07-22 04:00:00 17.6 5 Sudoeste 15 Sur 0 -- -- 33
2019-07-22 03:00:00 17.5 7 Sur 13 Sur 0 -- -- 37
2019-07-22 02:00:00 17.4 9 Sur 13 Sur 0 -- -- 53
2019-07-22 01:00:00 17.4 9 Sur 12 Sur 0 -- -- 54
2019-07-22 00:00:00 18.5 6 Sur 12 Sur 0 -- -- 54
2019-07-21 23:00:00 19.8 6 Sudeste 15 Sudeste 0 -- -- 53
2019-07-21 22:00:00 20.9 6 Sudeste 24 Sudeste 0 -- -- 51
2019-07-21 21:00:00 22.6 13 Sudeste 29 Sudeste 0 -- -- 48
2019-07-21 20:00:00 24.6 19 Sur 33 Sudeste 0 -- -- 39
2019-07-21 19:00:00 25.9 23 Sudeste 44 Sudeste 0 -- -- 39
2019-07-21 18:00:00 26.7 26 Sur 37 Sur 0 -- -- 40
2019-07-21 17:00:00 27.2 25 Sudeste 39 Sudeste 0 -- -- 41
2019-07-21 16:00:00 27.2 28 Sudeste 38 Sudeste 0 -- -- 37
2019-07-21 15:00:00 27.7 22 Sur 37 Sudeste 0 -- -- 32
2019-07-21 14:00:00 26.7 25 Sudeste 36 Sudeste 0 -- -- 33
2019-07-21 13:00:00 26.3 21 Sudeste 35 Sudeste 0 -- -- 30
2019-07-21 12:00:00 26 22 Sudeste 33 Sudeste 0 -- -- 33
2019-07-21 11:00:00 24.6 21 Sudeste 30 Sudeste 0 -- -- 38
2019-07-21 10:00:00 23 15 Sudeste 22 Sudeste 0 -- -- 43
2019-07-21 09:00:00 20.5 10 Sur 18 Sur 0 -- -- 51
2019-07-21 08:00:00 18.5 5 Sudoeste 13 Sudoeste 0 -- -- 55
2019-07-21 07:00:00 17.7 8 Sur 13 Sur 0 -- -- 57
2019-07-21 06:00:00 17.8 7 Sudoeste 14 Sur 0 -- -- 56
2019-07-21 05:00:00 18 5 Sur 17 Sudeste 0 -- -- 52
2019-07-21 04:00:00 18.8 8 Sudeste 26 Sudeste 0 -- -- 46
2019-07-21 03:00:00 19.3 14 Sudeste 26 Sur 0 -- -- 41
2019-07-21 02:00:00 19.3 15 Sudeste 27 Sudeste 0 -- -- 38
2019-07-21 01:00:00 19.3 19 Sur 30 Sudeste 0 -- -- 41
2019-07-21 00:00:00 19.3 18 Sudeste 35 Sur 0 -- -- 49